sensor_id;sensor_type;location;lat;lon;timestamp;P1;durP1;ratioP1;P2;durP2;ratioP2
53044;SDS011;38930;52.766;6.884;2022-07-04T00:00:20;5.07;;;3.70;;
53044;SDS011;38930;52.766;6.884;2022-07-04T00:02:46;5.50;;;4.13;;
53044;SDS011;38930;52.766;6.884;2022-07-04T00:05:13;7.03;;;3.97;;
53044;SDS011;38930;52.766;6.884;2022-07-04T00:07:39;4.57;;;3.78;;
53044;SDS011;38930;52.766;6.884;2022-07-04T00:10:06;4.40;;;4.00;;
53044;SDS011;38930;52.766;6.884;2022-07-04T00:12:33;4.35;;;3.95;;
53044;SDS011;38930;52.766;6.884;2022-07-04T00:15:00;6.18;;;4.57;;
53044;SDS011;38930;52.766;6.884;2022-07-04T00:17:26;6.28;;;4.63;;
53044;SDS011;38930;52.766;6.884;2022-07-04T00:19:52;5.40;;;4.10;;
53044;SDS011;38930;52.766;6.884;2022-07-04T00:22:18;4.57;;;3.90;;
53044;SDS011;38930;52.766;6.884;2022-07-04T00:24:43;5.53;;;3.92;;
53044;SDS011;38930;52.766;6.884;2022-07-04T00:27:09;4.57;;;3.95;;
53044;SDS011;38930;52.766;6.884;2022-07-04T00:29:35;5.53;;;4.07;;
53044;SDS011;38930;52.766;6.884;2022-07-04T00:32:00;6.35;;;4.30;;
53044;SDS011;38930;52.766;6.884;2022-07-04T00:34:27;6.00;;;4.07;;
53044;SDS011;38930;52.766;6.884;2022-07-04T00:36:53;6.05;;;4.10;;
53044;SDS011;38930;52.766;6.884;2022-07-04T00:39:19;6.60;;;4.30;;
53044;SDS011;38930;52.766;6.884;2022-07-04T00:41:45;6.47;;;4.30;;
53044;SDS011;38930;52.766;6.884;2022-07-04T00:44:11;5.43;;;4.93;;
53044;SDS011;38930;52.766;6.884;2022-07-04T00:46:38;5.88;;;4.40;;
53044;SDS011;38930;52.766;6.884;2022-07-04T00:49:04;6.82;;;5.00;;
53044;SDS011;38930;52.766;6.884;2022-07-04T00:51:30;4.90;;;4.40;;
53044;SDS011;38930;52.766;6.884;2022-07-04T00:53:56;7.22;;;5.40;;
53044;SDS011;38930;52.766;6.884;2022-07-04T00:56:23;7.18;;;5.15;;
53044;SDS011;38930;52.766;6.884;2022-07-04T00:58:49;6.40;;;5.55;;
53044;SDS011;38930;52.766;6.884;2022-07-04T01:01:16;6.32;;;5.10;;
53044;SDS011;38930;52.766;6.884;2022-07-04T01:03:42;5.93;;;5.32;;
53044;SDS011;38930;52.766;6.884;2022-07-04T01:06:08;6.22;;;5.22;;
53044;SDS011;38930;52.766;6.884;2022-07-04T01:08:38;8.73;;;5.10;;
53044;SDS011;38930;52.766;6.884;2022-07-04T01:11:08;6.05;;;5.03;;
53044;SDS011;38930;52.766;6.884;2022-07-04T01:13:34;6.95;;;5.18;;
53044;SDS011;38930;52.766;6.884;2022-07-04T01:16:00;6.32;;;5.03;;
53044;SDS011;38930;52.766;6.884;2022-07-04T01:18:26;7.97;;;5.33;;
53044;SDS011;38930;52.766;6.884;2022-07-04T01:20:51;6.47;;;5.30;;
53044;SDS011;38930;52.766;6.884;2022-07-04T01:23:17;7.43;;;5.17;;
53044;SDS011;38930;52.766;6.884;2022-07-04T01:25:43;7.67;;;5.87;;
53044;SDS011;38930;52.766;6.884;2022-07-04T01:28:09;6.23;;;5.53;;
53044;SDS011;38930;52.766;6.884;2022-07-04T01:30:35;7.83;;;5.63;;
53044;SDS011;38930;52.766;6.884;2022-07-04T01:33:01;6.68;;;5.82;;
53044;SDS011;38930;52.766;6.884;2022-07-04T01:35:27;6.80;;;5.87;;
53044;SDS011;38930;52.766;6.884;2022-07-04T01:37:53;6.43;;;5.63;;
53044;SDS011;38930;52.766;6.884;2022-07-04T01:40:19;5.75;;;5.00;;
53044;SDS011;38930;52.766;6.884;2022-07-04T01:42:45;8.52;;;5.78;;
53044;SDS011;38930;52.766;6.884;2022-07-04T01:45:11;7.50;;;6.33;;
53044;SDS011;38930;52.766;6.884;2022-07-04T01:47:37;6.25;;;5.65;;
53044;SDS011;38930;52.766;6.884;2022-07-04T01:50:04;8.85;;;5.55;;
53044;SDS011;38930;52.766;6.884;2022-07-04T01:52:31;7.75;;;5.75;;
53044;SDS011;38930;52.766;6.884;2022-07-04T01:54:57;7.43;;;5.85;;
53044;SDS011;38930;52.766;6.884;2022-07-04T01:57:23;7.00;;;6.05;;
53044;SDS011;38930;52.766;6.884;2022-07-04T01:59:48;6.80;;;5.63;;
53044;SDS011;38930;52.766;6.884;2022-07-04T02:02:33;7.93;;;6.22;;
53044;SDS011;38930;52.766;6.884;2022-07-04T02:04:58;6.80;;;6.10;;
53044;SDS011;38930;52.766;6.884;2022-07-04T02:07:24;6.00;;;5.50;;
53044;SDS011;38930;52.766;6.884;2022-07-04T02:09:49;6.72;;;6.03;;
53044;SDS011;38930;52.766;6.884;2022-07-04T02:12:15;7.13;;;6.23;;
53044;SDS011;38930;52.766;6.884;2022-07-04T02:14:59;7.35;;;6.65;;
53044;SDS011;38930;52.766;6.884;2022-07-04T02:17:25;7.03;;;6.27;;
53044;SDS011;38930;52.766;6.884;2022-07-04T02:19:50;8.10;;;6.43;;
53044;SDS011;38930;52.766;6.884;2022-07-04T02:22:16;7.30;;;6.60;;
53044;SDS011;38930;52.766;6.884;2022-07-04T02:24:42;7.03;;;6.38;;
53044;SDS011;38930;52.766;6.884;2022-07-04T02:27:08;8.32;;;6.97;;
53044;SDS011;38930;52.766;6.884;2022-07-04T02:29:34;7.37;;;6.60;;
53044;SDS011;38930;52.766;6.884;2022-07-04T02:32:00;8.70;;;7.30;;
53044;SDS011;38930;52.766;6.884;2022-07-04T02:34:25;7.95;;;7.03;;
53044;SDS011;38930;52.766;6.884;2022-07-04T02:36:51;7.43;;;6.72;;
53044;SDS011;38930;52.766;6.884;2022-07-04T02:39:16;8.53;;;7.30;;
53044;SDS011;38930;52.766;6.884;2022-07-04T02:41:42;7.72;;;6.93;;
53044;SDS011;38930;52.766;6.884;2022-07-04T02:44:08;8.15;;;7.35;;
53044;SDS011;38930;52.766;6.884;2022-07-04T02:46:33;6.43;;;5.82;;
53044;SDS011;38930;52.766;6.884;2022-07-04T02:48:59;8.48;;;7.68;;
53044;SDS011;38930;52.766;6.884;2022-07-04T02:51:25;8.50;;;7.68;;
53044;SDS011;38930;52.766;6.884;2022-07-04T02:53:51;7.67;;;6.93;;
53044;SDS011;38930;52.766;6.884;2022-07-04T02:56:17;8.43;;;7.63;;
53044;SDS011;38930;52.766;6.884;2022-07-04T02:58:43;8.10;;;7.28;;
53044;SDS011;38930;52.766;6.884;2022-07-04T03:01:09;8.30;;;7.43;;
53044;SDS011;38930;52.766;6.884;2022-07-04T03:03:35;8.20;;;7.10;;
53044;SDS011;38930;52.766;6.884;2022-07-04T03:06:01;8.63;;;7.83;;
53044;SDS011;38930;52.766;6.884;2022-07-04T03:08:26;8.95;;;8.02;;
53044;SDS011;38930;52.766;6.884;2022-07-04T03:10:52;9.50;;;8.02;;
53044;SDS011;38930;52.766;6.884;2022-07-04T03:13:18;9.07;;;8.13;;
53044;SDS011;38930;52.766;6.884;2022-07-04T03:15:44;9.38;;;8.25;;
53044;SDS011;38930;52.766;6.884;2022-07-04T03:18:10;12.07;;;8.73;;
53044;SDS011;38930;52.766;6.884;2022-07-04T03:20:36;10.00;;;8.35;;
53044;SDS011;38930;52.766;6.884;2022-07-04T03:23:02;9.80;;;7.80;;
53044;SDS011;38930;52.766;6.884;2022-07-04T03:25:28;10.60;;;8.13;;
53044;SDS011;38930;52.766;6.884;2022-07-04T03:27:54;9.07;;;7.90;;
53044;SDS011;38930;52.766;6.884;2022-07-04T03:30:19;10.43;;;8.40;;
53044;SDS011;38930;52.766;6.884;2022-07-04T03:32:45;10.05;;;8.75;;
53044;SDS011;38930;52.766;6.884;2022-07-04T03:35:11;11.87;;;9.30;;
53044;SDS011;38930;52.766;6.884;2022-07-04T03:37:36;10.65;;;8.77;;
53044;SDS011;38930;52.766;6.884;2022-07-04T03:40:02;9.80;;;8.27;;
53044;SDS011;38930;52.766;6.884;2022-07-04T03:42:28;9.80;;;8.15;;
53044;SDS011;38930;52.766;6.884;2022-07-04T03:44:54;9.00;;;8.13;;
53044;SDS011;38930;52.766;6.884;2022-07-04T03:47:19;9.43;;;8.52;;
53044;SDS011;38930;52.766;6.884;2022-07-04T03:49:45;8.88;;;8.00;;
53044;SDS011;38930;52.766;6.884;2022-07-04T03:52:10;10.80;;;8.45;;
53044;SDS011;38930;52.766;6.884;2022-07-04T03:54:36;10.05;;;9.02;;
53044;SDS011;38930;52.766;6.884;2022-07-04T03:57:02;12.65;;;9.57;;
53044;SDS011;38930;52.766;6.884;2022-07-04T03:59:28;11.00;;;9.18;;
53044;SDS011;38930;52.766;6.884;2022-07-04T04:01:53;10.63;;;9.53;;
53044;SDS011;38930;52.766;6.884;2022-07-04T04:04:19;10.57;;;9.30;;
53044;SDS011;38930;52.766;6.884;2022-07-04T04:07:03;10.98;;;9.45;;
53044;SDS011;38930;52.766;6.884;2022-07-04T04:09:29;11.17;;;9.87;;
53044;SDS011;38930;52.766;6.884;2022-07-04T04:11:54;11.33;;;10.17;;
53044;SDS011;38930;52.766;6.884;2022-07-04T04:14:20;10.60;;;9.43;;
53044;SDS011;38930;52.766;6.884;2022-07-04T04:16:46;12.88;;;10.32;;
53044;SDS011;38930;52.766;6.884;2022-07-04T04:19:11;11.32;;;10.18;;
53044;SDS011;38930;52.766;6.884;2022-07-04T04:21:37;14.45;;;12.00;;
53044;SDS011;38930;52.766;6.884;2022-07-04T04:24:03;12.87;;;11.17;;
53044;SDS011;38930;52.766;6.884;2022-07-04T04:26:29;12.88;;;11.40;;
53044;SDS011;38930;52.766;6.884;2022-07-04T04:28:55;12.47;;;11.20;;
53044;SDS011;38930;52.766;6.884;2022-07-04T04:31:21;15.52;;;13.00;;
53044;SDS011;38930;52.766;6.884;2022-07-04T04:33:46;12.90;;;11.55;;
53044;SDS011;38930;52.766;6.884;2022-07-04T04:36:12;12.75;;;11.40;;
53044;SDS011;38930;52.766;6.884;2022-07-04T04:38:38;13.30;;;11.90;;
53044;SDS011;38930;52.766;6.884;2022-07-04T04:41:04;18.10;;;12.73;;
53044;SDS011;38930;52.766;6.884;2022-07-04T04:43:29;12.55;;;10.98;;
53044;SDS011;38930;52.766;6.884;2022-07-04T04:45:55;13.95;;;12.00;;
53044;SDS011;38930;52.766;6.884;2022-07-04T04:48:21;13.95;;;11.93;;
53044;SDS011;38930;52.766;6.884;2022-07-04T04:50:46;12.60;;;10.90;;
53044;SDS011;38930;52.766;6.884;2022-07-04T04:53:12;14.07;;;11.93;;
53044;SDS011;38930;52.766;6.884;2022-07-04T04:55:37;16.58;;;12.88;;
53044;SDS011;38930;52.766;6.884;2022-07-04T04:58:04;13.00;;;11.70;;
53044;SDS011;38930;52.766;6.884;2022-07-04T05:00:30;13.73;;;12.00;;
53044;SDS011;38930;52.766;6.884;2022-07-04T05:02:56;14.70;;;11.23;;
53044;SDS011;38930;52.766;6.884;2022-07-04T05:05:22;11.15;;;10.05;;
53044;SDS011;38930;52.766;6.884;2022-07-04T05:07:47;14.20;;;10.43;;
53044;SDS011;38930;52.766;6.884;2022-07-04T05:10:13;13.00;;;9.65;;
53044;SDS011;38930;52.766;6.884;2022-07-04T05:12:40;12.15;;;10.25;;
53044;SDS011;38930;52.766;6.884;2022-07-04T05:15:07;16.13;;;10.18;;
53044;SDS011;38930;52.766;6.884;2022-07-04T05:17:33;11.07;;;8.73;;
53044;SDS011;38930;52.766;6.884;2022-07-04T05:19:58;11.30;;;9.40;;
53044;SDS011;38930;52.766;6.884;2022-07-04T05:22:24;10.87;;;9.47;;
53044;SDS011;38930;52.766;6.884;2022-07-04T05:24:49;10.43;;;9.30;;
53044;SDS011;38930;52.766;6.884;2022-07-04T05:27:15;14.07;;;9.20;;
53044;SDS011;38930;52.766;6.884;2022-07-04T05:29:41;10.27;;;8.27;;
53044;SDS011;38930;52.766;6.884;2022-07-04T05:32:06;16.08;;;8.82;;
53044;SDS011;38930;52.766;6.884;2022-07-04T05:34:32;8.93;;;8.02;;
53044;SDS011;38930;52.766;6.884;2022-07-04T05:36:58;13.53;;;7.83;;
53044;SDS011;38930;52.766;6.884;2022-07-04T05:39:24;15.65;;;7.90;;
53044;SDS011;38930;52.766;6.884;2022-07-04T05:41:49;10.70;;;7.13;;
53044;SDS011;38930;52.766;6.884;2022-07-04T05:44:15;11.38;;;6.95;;
53044;SDS011;38930;52.766;6.884;2022-07-04T05:46:40;12.57;;;6.97;;
53044;SDS011;38930;52.766;6.884;2022-07-04T05:49:06;8.68;;;6.03;;
53044;SDS011;38930;52.766;6.884;2022-07-04T05:51:32;9.48;;;6.07;;
53044;SDS011;38930;52.766;6.884;2022-07-04T05:53:57;8.60;;;5.63;;
53044;SDS011;38930;52.766;6.884;2022-07-04T05:56:23;9.33;;;6.57;;
53044;SDS011;38930;52.766;6.884;2022-07-04T05:58:48;6.40;;;5.43;;
53044;SDS011;38930;52.766;6.884;2022-07-04T06:01:14;7.87;;;5.70;;
53044;SDS011;38930;52.766;6.884;2022-07-04T06:03:39;7.47;;;5.30;;
53044;SDS011;38930;52.766;6.884;2022-07-04T06:06:05;8.53;;;5.63;;
53044;SDS011;38930;52.766;6.884;2022-07-04T06:08:31;13.80;;;4.90;;
53044;SDS011;38930;52.766;6.884;2022-07-04T06:10:57;7.90;;;5.07;;
53044;SDS011;38930;52.766;6.884;2022-07-04T06:13:23;6.57;;;4.82;;
53044;SDS011;38930;52.766;6.884;2022-07-04T06:15:49;9.10;;;5.13;;
53044;SDS011;38930;52.766;6.884;2022-07-04T06:18:15;9.90;;;5.00;;
53044;SDS011;38930;52.766;6.884;2022-07-04T06:20:41;7.53;;;5.77;;
53044;SDS011;38930;52.766;6.884;2022-07-04T06:23:07;7.70;;;5.07;;
53044;SDS011;38930;52.766;6.884;2022-07-04T06:25:33;8.03;;;5.43;;
53044;SDS011;38930;52.766;6.884;2022-07-04T06:27:59;9.82;;;4.93;;
53044;SDS011;38930;52.766;6.884;2022-07-04T06:30:25;5.72;;;4.88;;
53044;SDS011;38930;52.766;6.884;2022-07-04T06:32:56;9.23;;;5.30;;
53044;SDS011;38930;52.766;6.884;2022-07-04T06:35:23;7.03;;;4.65;;
53044;SDS011;38930;52.766;6.884;2022-07-04T06:38:10;11.35;;;5.53;;
53044;SDS011;38930;52.766;6.884;2022-07-04T06:40:37;8.95;;;5.22;;
53044;SDS011;38930;52.766;6.884;2022-07-04T06:43:03;10.73;;;4.70;;
53044;SDS011;38930;52.766;6.884;2022-07-04T06:45:29;8.47;;;4.90;;
53044;SDS011;38930;52.766;6.884;2022-07-04T06:47:55;8.05;;;4.68;;
53044;SDS011;38930;52.766;6.884;2022-07-04T06:50:21;7.70;;;4.10;;
53044;SDS011;38930;52.766;6.884;2022-07-04T06:52:47;9.13;;;4.55;;
53044;SDS011;38930;52.766;6.884;2022-07-04T06:55:13;8.27;;;3.90;;
53044;SDS011;38930;52.766;6.884;2022-07-04T06:57:39;7.97;;;4.23;;
53044;SDS011;38930;52.766;6.884;2022-07-04T07:00:05;6.30;;;4.07;;
53044;SDS011;38930;52.766;6.884;2022-07-04T07:02:35;6.88;;;3.85;;
53044;SDS011;38930;52.766;6.884;2022-07-04T07:05:01;6.88;;;3.80;;
53044;SDS011;38930;52.766;6.884;2022-07-04T07:07:28;8.02;;;4.05;;
53044;SDS011;38930;52.766;6.884;2022-07-04T07:09:53;8.33;;;3.70;;
53044;SDS011;38930;52.766;6.884;2022-07-04T07:12:20;5.68;;;3.88;;
53044;SDS011;38930;52.766;6.884;2022-07-04T07:14:47;7.40;;;3.90;;
53044;SDS011;38930;52.766;6.884;2022-07-04T07:17:13;10.57;;;4.05;;
53044;SDS011;38930;52.766;6.884;2022-07-04T07:22:07;8.20;;;3.50;;
53044;SDS011;38930;52.766;6.884;2022-07-04T07:24:33;10.18;;;3.90;;
53044;SDS011;38930;52.766;6.884;2022-07-04T07:26:59;7.13;;;3.63;;
53044;SDS011;38930;52.766;6.884;2022-07-04T07:29:25;9.48;;;3.63;;
53044;SDS011;38930;52.766;6.884;2022-07-04T07:31:51;6.07;;;3.47;;
53044;SDS011;38930;52.766;6.884;2022-07-04T07:34:16;11.47;;;3.77;;
53044;SDS011;38930;52.766;6.884;2022-07-04T07:36:42;6.57;;;3.60;;
53044;SDS011;38930;52.766;6.884;2022-07-04T07:39:08;9.20;;;3.93;;
53044;SDS011;38930;52.766;6.884;2022-07-04T07:41:33;8.93;;;3.83;;
53044;SDS011;38930;52.766;6.884;2022-07-04T07:43:59;7.80;;;3.17;;
53044;SDS011;38930;52.766;6.884;2022-07-04T07:46:24;7.47;;;3.33;;
53044;SDS011;38930;52.766;6.884;2022-07-04T07:48:50;7.53;;;3.97;;
53044;SDS011;38930;52.766;6.884;2022-07-04T07:51:16;10.10;;;3.70;;
53044;SDS011;38930;52.766;6.884;2022-07-04T07:53:42;8.50;;;3.17;;
53044;SDS011;38930;52.766;6.884;2022-07-04T07:56:08;8.82;;;3.88;;
53044;SDS011;38930;52.766;6.884;2022-07-04T07:58:34;8.87;;;3.23;;
53044;SDS011;38930;52.766;6.884;2022-07-04T08:01:00;7.07;;;3.20;;
53044;SDS011;38930;52.766;6.884;2022-07-04T08:03:27;9.43;;;3.45;;
53044;SDS011;38930;52.766;6.884;2022-07-04T08:06:12;8.48;;;3.30;;
53044;SDS011;38930;52.766;6.884;2022-07-04T08:08:39;9.18;;;2.97;;
53044;SDS011;38930;52.766;6.884;2022-07-04T08:11:05;7.47;;;2.95;;
53044;SDS011;38930;52.766;6.884;2022-07-04T08:13:31;7.13;;;3.27;;
53044;SDS011;38930;52.766;6.884;2022-07-04T08:15:57;10.23;;;2.70;;
53044;SDS011;38930;52.766;6.884;2022-07-04T08:18:23;6.10;;;2.67;;
53044;SDS011;38930;52.766;6.884;2022-07-04T08:20:49;10.67;;;3.17;;
53044;SDS011;38930;52.766;6.884;2022-07-04T08:23:15;9.68;;;2.70;;
53044;SDS011;38930;52.766;6.884;2022-07-04T08:25:41;6.30;;;2.67;;
53044;SDS011;38930;52.766;6.884;2022-07-04T08:28:07;6.40;;;2.60;;
53044;SDS011;38930;52.766;6.884;2022-07-04T08:30:32;7.47;;;3.00;;
53044;SDS011;38930;52.766;6.884;2022-07-04T08:32:59;8.73;;;2.95;;
53044;SDS011;38930;52.766;6.884;2022-07-04T08:35:24;5.77;;;2.47;;
53044;SDS011;38930;52.766;6.884;2022-07-04T08:37:50;9.47;;;3.13;;
53044;SDS011;38930;52.766;6.884;2022-07-04T08:40:21;7.22;;;2.40;;
53044;SDS011;38930;52.766;6.884;2022-07-04T08:42:48;8.00;;;2.33;;
53044;SDS011;38930;52.766;6.884;2022-07-04T08:45:14;7.82;;;2.70;;
53044;SDS011;38930;52.766;6.884;2022-07-04T08:47:42;8.55;;;2.65;;
53044;SDS011;38930;52.766;6.884;2022-07-04T08:50:09;6.30;;;2.30;;
53044;SDS011;38930;52.766;6.884;2022-07-04T08:52:52;9.13;;;2.90;;
53044;SDS011;38930;52.766;6.884;2022-07-04T08:55:19;8.77;;;2.80;;
53044;SDS011;38930;52.766;6.884;2022-07-04T08:58:03;10.48;;;3.00;;
53044;SDS011;38930;52.766;6.884;2022-07-04T09:00:49;8.25;;;3.10;;
53044;SDS011;38930;52.766;6.884;2022-07-04T09:03:16;8.55;;;3.00;;
53044;SDS011;38930;52.766;6.884;2022-07-04T09:05:43;6.80;;;3.00;;
53044;SDS011;38930;52.766;6.884;2022-07-04T09:08:09;8.07;;;2.97;;
53044;SDS011;38930;52.766;6.884;2022-07-04T09:10:35;9.27;;;3.20;;
53044;SDS011;38930;52.766;6.884;2022-07-04T09:13:02;6.57;;;2.80;;
53044;SDS011;38930;52.766;6.884;2022-07-04T09:15:30;10.48;;;3.05;;
53044;SDS011;38930;52.766;6.884;2022-07-04T09:17:56;8.63;;;3.28;;
53044;SDS011;38930;52.766;6.884;2022-07-04T09:20:23;8.25;;;2.95;;
53044;SDS011;38930;52.766;6.884;2022-07-04T09:22:50;9.70;;;3.40;;
53044;SDS011;38930;52.766;6.884;2022-07-04T09:25:16;9.25;;;2.90;;
53044;SDS011;38930;52.766;6.884;2022-07-04T09:27:52;7.07;;;2.58;;
53044;SDS011;38930;52.766;6.884;2022-07-04T09:30:23;5.45;;;2.50;;
53044;SDS011;38930;52.766;6.884;2022-07-04T09:32:51;6.15;;;2.60;;
53044;SDS011;38930;52.766;6.884;2022-07-04T09:35:25;11.18;;;3.03;;
53044;SDS011;38930;52.766;6.884;2022-07-04T09:37:55;6.47;;;2.47;;
53044;SDS011;38930;52.766;6.884;2022-07-04T09:40:28;7.07;;;2.47;;
53044;SDS011;38930;52.766;6.884;2022-07-04T09:43:00;6.75;;;2.40;;
53044;SDS011;38930;52.766;6.884;2022-07-04T09:45:35;7.57;;;2.40;;
53044;SDS011;38930;52.766;6.884;2022-07-04T09:48:17;5.07;;;2.28;;
53044;SDS011;38930;52.766;6.884;2022-07-04T09:50:43;9.47;;;2.30;;
53044;SDS011;38930;52.766;6.884;2022-07-04T09:53:08;6.53;;;1.77;;
53044;SDS011;38930;52.766;6.884;2022-07-04T09:55:35;6.57;;;2.00;;
53044;SDS011;38930;52.766;6.884;2022-07-04T09:58:09;6.35;;;1.73;;
53044;SDS011;38930;52.766;6.884;2022-07-04T10:00:36;8.02;;;2.00;;
53044;SDS011;38930;52.766;6.884;2022-07-04T10:03:20;5.97;;;2.03;;
53044;SDS011;38930;52.766;6.884;2022-07-04T10:06:09;4.05;;;1.55;;
53044;SDS011;38930;52.766;6.884;2022-07-04T10:08:41;4.97;;;1.60;;
53044;SDS011;38930;52.766;6.884;2022-07-04T10:11:08;5.47;;;1.60;;
53044;SDS011;38930;52.766;6.884;2022-07-04T10:13:34;7.80;;;2.28;;
53044;SDS011;38930;52.766;6.884;2022-07-04T10:16:00;7.93;;;1.60;;
53044;SDS011;38930;52.766;6.884;2022-07-04T10:18:25;3.60;;;1.30;;
53044;SDS011;38930;52.766;6.884;2022-07-04T10:20:52;5.32;;;1.70;;
53044;SDS011;38930;52.766;6.884;2022-07-04T10:23:19;4.00;;;1.40;;
53044;SDS011;38930;52.766;6.884;2022-07-04T10:25:46;4.57;;;1.50;;
53044;SDS011;38930;52.766;6.884;2022-07-04T10:28:13;3.95;;;1.60;;
53044;SDS011;38930;52.766;6.884;2022-07-04T10:30:39;3.57;;;1.37;;
53044;SDS011;38930;52.766;6.884;2022-07-04T10:38:19;4.40;;;1.10;;
53044;SDS011;38930;52.766;6.884;2022-07-04T10:45:56;2.83;;;0.90;;
53044;SDS011;38930;52.766;6.884;2022-07-04T10:48:47;5.70;;;1.20;;
53044;SDS011;38930;52.766;6.884;2022-07-04T10:51:14;3.80;;;1.20;;
53044;SDS011;38930;52.766;6.884;2022-07-04T10:58:54;3.45;;;0.95;;
53044;SDS011;38930;52.766;6.884;2022-07-04T11:01:22;2.33;;;1.08;;
53044;SDS011;38930;52.766;6.884;2022-07-04T11:03:52;3.00;;;1.00;;
53044;SDS011;38930;52.766;6.884;2022-07-04T11:19:29;2.50;;;0.98;;
53044;SDS011;38930;52.766;6.884;2022-07-04T11:21:55;2.55;;;0.98;;
53044;SDS011;38930;52.766;6.884;2022-07-04T11:26:48;3.88;;;1.02;;
53044;SDS011;38930;52.766;6.884;2022-07-04T11:29:14;5.70;;;1.20;;
53044;SDS011;38930;52.766;6.884;2022-07-04T11:31:41;6.45;;;1.45;;
53044;SDS011;38930;52.766;6.884;2022-07-04T11:34:08;6.22;;;1.50;;
53044;SDS011;38930;52.766;6.884;2022-07-04T11:36:34;3.03;;;0.98;;
53044;SDS011;38930;52.766;6.884;2022-07-04T11:39:02;2.58;;;0.85;;
53044;SDS011;38930;52.766;6.884;2022-07-04T11:41:33;3.75;;;1.20;;
53044;SDS011;38930;52.766;6.884;2022-07-04T11:44:19;3.05;;;1.10;;
53044;SDS011;38930;52.766;6.884;2022-07-04T11:49:31;2.92;;;0.90;;
53044;SDS011;38930;52.766;6.884;2022-07-04T11:51:57;3.60;;;1.20;;
53044;SDS011;38930;52.766;6.884;2022-07-04T11:54:23;2.85;;;1.08;;
53044;SDS011;38930;52.766;6.884;2022-07-04T11:56:49;3.33;;;1.00;;
53044;SDS011;38930;52.766;6.884;2022-07-04T11:59:15;4.63;;;1.37;;
53044;SDS011;38930;52.766;6.884;2022-07-04T12:01:42;3.83;;;1.20;;
53044;SDS011;38930;52.766;6.884;2022-07-04T12:04:13;2.15;;;1.00;;
53044;SDS011;38930;52.766;6.884;2022-07-04T12:06:43;2.42;;;1.02;;
53044;SDS011;38930;52.766;6.884;2022-07-04T12:09:10;2.50;;;0.90;;
53044;SDS011;38930;52.766;6.884;2022-07-04T12:14:24;1.85;;;1.00;;
53044;SDS011;38930;52.766;6.884;2022-07-04T12:19:52;3.15;;;1.05;;
53044;SDS011;38930;52.766;6.884;2022-07-04T12:22:32;3.50;;;1.05;;
53044;SDS011;38930;52.766;6.884;2022-07-04T12:25:03;3.85;;;1.20;;
53044;SDS011;38930;52.766;6.884;2022-07-04T12:27:31;5.10;;;1.23;;
53044;SDS011;38930;52.766;6.884;2022-07-04T12:29:58;3.20;;;1.00;;
53044;SDS011;38930;52.766;6.884;2022-07-04T12:35:08;7.07;;;1.58;;
53044;SDS011;38930;52.766;6.884;2022-07-04T12:37:34;15.23;;;3.07;;
53044;SDS011;38930;52.766;6.884;2022-07-04T12:40:06;3.50;;;1.20;;
53044;SDS011;38930;52.766;6.884;2022-07-04T12:42:33;9.73;;;1.48;;
53044;SDS011;38930;52.766;6.884;2022-07-04T12:45:04;2.87;;;1.10;;
53044;SDS011;38930;52.766;6.884;2022-07-04T12:47:31;3.50;;;1.15;;
53044;SDS011;38930;52.766;6.884;2022-07-04T12:49:56;3.30;;;1.30;;
53044;SDS011;38930;52.766;6.884;2022-07-04T12:52:22;2.30;;;0.87;;
53044;SDS011;38930;52.766;6.884;2022-07-04T12:55:02;2.70;;;1.02;;
53044;SDS011;38930;52.766;6.884;2022-07-04T12:57:28;2.72;;;0.98;;
53044;SDS011;38930;52.766;6.884;2022-07-04T12:59:54;7.00;;;1.00;;
53044;SDS011;38930;52.766;6.884;2022-07-04T13:02:19;22.57;;;3.57;;
53044;SDS011;38930;52.766;6.884;2022-07-04T13:04:45;4.10;;;1.00;;
53044;SDS011;38930;52.766;6.884;2022-07-04T13:07:12;3.63;;;1.13;;
53044;SDS011;38930;52.766;6.884;2022-07-04T13:09:39;3.92;;;1.02;;
53044;SDS011;38930;52.766;6.884;2022-07-04T13:12:06;2.33;;;1.20;;
53044;SDS011;38930;52.766;6.884;2022-07-04T13:14:56;2.08;;;0.90;;
53044;SDS011;38930;52.766;6.884;2022-07-04T13:17:23;2.00;;;0.77;;
53044;SDS011;38930;52.766;6.884;2022-07-04T13:19:50;4.50;;;1.20;;
53044;SDS011;38930;52.766;6.884;2022-07-04T13:22:22;1.85;;;0.90;;
53044;SDS011;38930;52.766;6.884;2022-07-04T13:24:51;4.97;;;1.08;;
53044;SDS011;38930;52.766;6.884;2022-07-04T13:27:17;2.42;;;0.80;;
53044;SDS011;38930;52.766;6.884;2022-07-04T13:29:43;3.97;;;0.85;;
53044;SDS011;38930;52.766;6.884;2022-07-04T13:32:08;2.10;;;0.90;;
53044;SDS011;38930;52.766;6.884;2022-07-04T13:34:34;4.40;;;1.17;;
53044;SDS011;38930;52.766;6.884;2022-07-04T13:37:01;3.72;;;0.90;;
53044;SDS011;38930;52.766;6.884;2022-07-04T13:39:27;2.95;;;0.98;;
53044;SDS011;38930;52.766;6.884;2022-07-04T13:41:52;4.23;;;1.10;;
53044;SDS011;38930;52.766;6.884;2022-07-04T13:44:18;4.00;;;1.13;;
53044;SDS011;38930;52.766;6.884;2022-07-04T13:46:44;3.23;;;1.10;;
53044;SDS011;38930;52.766;6.884;2022-07-04T13:49:09;3.67;;;1.00;;
53044;SDS011;38930;52.766;6.884;2022-07-04T13:51:36;3.75;;;1.10;;
53044;SDS011;38930;52.766;6.884;2022-07-04T13:54:03;2.35;;;1.02;;
53044;SDS011;38930;52.766;6.884;2022-07-04T13:56:29;3.30;;;1.10;;
53044;SDS011;38930;52.766;6.884;2022-07-04T13:58:55;3.53;;;0.90;;
53044;SDS011;38930;52.766;6.884;2022-07-04T14:01:21;1.90;;;0.90;;
53044;SDS011;38930;52.766;6.884;2022-07-04T14:03:47;2.97;;;0.90;;
53044;SDS011;38930;52.766;6.884;2022-07-04T14:06:13;1.90;;;1.00;;
53044;SDS011;38930;52.766;6.884;2022-07-04T14:08:41;2.20;;;0.75;;
53044;SDS011;38930;52.766;6.884;2022-07-04T14:11:06;2.50;;;0.80;;
53044;SDS011;38930;52.766;6.884;2022-07-04T14:15:58;2.30;;;0.80;;
53044;SDS011;38930;52.766;6.884;2022-07-04T14:18:25;6.75;;;1.13;;
53044;SDS011;38930;52.766;6.884;2022-07-04T14:20:51;2.28;;;1.10;;
53044;SDS011;38930;52.766;6.884;2022-07-04T14:23:16;2.43;;;0.80;;
53044;SDS011;38930;52.766;6.884;2022-07-04T14:26:03;3.13;;;0.90;;
53044;SDS011;38930;52.766;6.884;2022-07-04T14:28:30;3.40;;;0.82;;
53044;SDS011;38930;52.766;6.884;2022-07-04T14:30:56;2.05;;;0.80;;
53044;SDS011;38930;52.766;6.884;2022-07-04T14:33:22;1.98;;;0.80;;
53044;SDS011;38930;52.766;6.884;2022-07-04T14:35:48;1.87;;;0.60;;
53044;SDS011;38930;52.766;6.884;2022-07-04T14:38:13;2.97;;;0.80;;
53044;SDS011;38930;52.766;6.884;2022-07-04T14:40:39;2.43;;;0.70;;
53044;SDS011;38930;52.766;6.884;2022-07-04T14:43:08;3.72;;;0.90;;
53044;SDS011;38930;52.766;6.884;2022-07-04T14:45:33;2.30;;;0.80;;
53044;SDS011;38930;52.766;6.884;2022-07-04T14:47:59;2.37;;;0.70;;
53044;SDS011;38930;52.766;6.884;2022-07-04T14:50:24;2.83;;;0.63;;
53044;SDS011;38930;52.766;6.884;2022-07-04T14:52:50;3.07;;;0.60;;
53044;SDS011;38930;52.766;6.884;2022-07-04T14:55:15;1.93;;;0.80;;
53044;SDS011;38930;52.766;6.884;2022-07-04T14:57:41;2.57;;;0.70;;
53044;SDS011;38930;52.766;6.884;2022-07-04T15:00:07;2.27;;;0.73;;
53044;SDS011;38930;52.766;6.884;2022-07-04T15:02:33;2.83;;;0.63;;
53044;SDS011;38930;52.766;6.884;2022-07-04T15:04:59;2.53;;;0.80;;
53044;SDS011;38930;52.766;6.884;2022-07-04T15:07:25;1.83;;;0.60;;
53044;SDS011;38930;52.766;6.884;2022-07-04T15:09:51;3.20;;;0.80;;
53044;SDS011;38930;52.766;6.884;2022-07-04T15:12:16;2.77;;;0.60;;
53044;SDS011;38930;52.766;6.884;2022-07-04T15:14:42;2.17;;;0.60;;
53044;SDS011;38930;52.766;6.884;2022-07-04T15:17:07;1.73;;;0.60;;
53044;SDS011;38930;52.766;6.884;2022-07-04T15:19:33;1.57;;;0.60;;
53044;SDS011;38930;52.766;6.884;2022-07-04T15:22:18;1.85;;;0.73;;
53044;SDS011;38930;52.766;6.884;2022-07-04T15:25:03;2.22;;;0.93;;
53044;SDS011;38930;52.766;6.884;2022-07-04T15:27:29;2.47;;;0.70;;
53044;SDS011;38930;52.766;6.884;2022-07-04T15:29:54;2.07;;;0.60;;